sensor_id;sensor_type;location;lat;lon;timestamp;pressure;altitude;pressure_sealevel;temperature;humidity
49843;BME280;55559;48.898;9.184;2022-10-29T00:01:32;99213.56;;;12.63;100.00
49843;BME280;55559;48.898;9.184;2022-10-29T00:03:59;99211.31;;;12.58;100.00
49843;BME280;55559;48.898;9.184;2022-10-29T00:06:28;99212.53;;;12.54;100.00
49843;BME280;55559;48.898;9.184;2022-10-29T00:08:56;99215.34;;;12.53;100.00
49843;BME280;55559;48.898;9.184;2022-10-29T00:11:23;99202.00;;;12.53;100.00
49843;BME280;55559;48.898;9.184;2022-10-29T00:13:53;99205.09;;;12.48;100.00
49843;BME280;55559;48.898;9.184;2022-10-29T00:16:23;99200.97;;;12.44;100.00
49843;BME280;55559;48.898;9.184;2022-10-29T00:18:50;99208.13;;;12.43;100.00
49843;BME280;55559;48.898;9.184;2022-10-29T00:21:20;99203.19;;;12.39;100.00
49843;BME280;55559;48.898;9.184;2022-10-29T00:23:50;99205.84;;;12.39;100.00
49843;BME280;55559;48.898;9.184;2022-10-29T00:26:19;99190.09;;;12.36;100.00
49843;BME280;55559;48.898;9.184;2022-10-29T00:28:48;99199.22;;;12.33;100.00
49843;BME280;55559;48.898;9.184;2022-10-29T00:31:18;99198.34;;;12.33;100.00
49843;BME280;55559;48.898;9.184;2022-10-29T00:33:46;99200.19;;;12.32;100.00
49843;BME280;55559;48.898;9.184;2022-10-29T00:36:15;99211.69;;;12.33;100.00
49843;BME280;55559;48.898;9.184;2022-10-29T00:38:43;99210.22;;;12.40;100.00
49843;BME280;55559;48.898;9.184;2022-10-29T00:41:14;99210.94;;;12.42;100.00
49843;BME280;55559;48.898;9.184;2022-10-29T00:43:46;99205.34;;;12.45;100.00
49843;BME280;55559;48.898;9.184;2022-10-29T00:46:16;99201.75;;;12.56;100.00
49843;BME280;55559;48.898;9.184;2022-10-29T00:48:49;99199.31;;;12.74;100.00
49843;BME280;55559;48.898;9.184;2022-10-29T00:51:18;99206.66;;;12.81;100.00
49843;BME280;55559;48.898;9.184;2022-10-29T00:53:49;99197.16;;;12.89;100.00
49843;BME280;55559;48.898;9.184;2022-10-29T00:56:20;99198.19;;;12.97;100.00
49843;BME280;55559;48.898;9.184;2022-10-29T00:58:51;99209.44;;;13.01;100.00
49843;BME280;55559;48.898;9.184;2022-10-29T01:01:18;99202.25;;;13.01;100.00
49843;BME280;55559;48.898;9.184;2022-10-29T01:03:46;99202.97;;;13.03;100.00
49843;BME280;55559;48.898;9.184;2022-10-29T01:06:14;99195.81;;;13.04;100.00
49843;BME280;55559;48.898;9.184;2022-10-29T01:08:42;99184.13;;;12.95;100.00
49843;BME280;55559;48.898;9.184;2022-10-29T01:11:16;99195.50;;;12.97;100.00
49843;BME280;55559;48.898;9.184;2022-10-29T01:13:59;99190.22;;;13.07;100.00
49843;BME280;55559;48.898;9.184;2022-10-29T01:16:35;99184.56;;;13.00;100.00
49843;BME280;55559;48.898;9.184;2022-10-29T01:19:12;99190.16;;;12.97;100.00
49843;BME280;55559;48.898;9.184;2022-10-29T01:21:42;99182.41;;;12.94;100.00
49843;BME280;55559;48.898;9.184;2022-10-29T01:24:34;99179.50;;;12.97;100.00
49843;BME280;55559;48.898;9.184;2022-10-29T01:27:35;99173.44;;;12.95;100.00
49843;BME280;55559;48.898;9.184;2022-10-29T01:30:15;99169.22;;;12.93;100.00
49843;BME280;55559;48.898;9.184;2022-10-29T01:32:52;99158.84;;;12.99;100.00
49843;BME280;55559;48.898;9.184;2022-10-29T01:35:30;99161.72;;;13.17;100.00
49843;BME280;55559;48.898;9.184;2022-10-29T01:38:07;99160.75;;;13.28;100.00
49843;BME280;55559;48.898;9.184;2022-10-29T01:40:40;99154.09;;;13.53;100.00
49843;BME280;55559;48.898;9.184;2022-10-29T01:43:13;99144.22;;;13.54;100.00
49843;BME280;55559;48.898;9.184;2022-10-29T01:45:45;99155.78;;;13.64;100.00
49843;BME280;55559;48.898;9.184;2022-10-29T01:48:18;99155.22;;;13.70;100.00
49843;BME280;55559;48.898;9.184;2022-10-29T01:50:52;99145.94;;;13.65;100.00
49843;BME280;55559;48.898;9.184;2022-10-29T01:53:22;99151.69;;;13.50;100.00
49843;BME280;55559;48.898;9.184;2022-10-29T01:55:49;99145.88;;;13.35;100.00
49843;BME280;55559;48.898;9.184;2022-10-29T01:58:17;99156.72;;;13.34;100.00
49843;BME280;55559;48.898;9.184;2022-10-29T02:00:49;99143.06;;;13.27;100.00
49843;BME280;55559;48.898;9.184;2022-10-29T02:03:32;99140.91;;;13.21;100.00
49843;BME280;55559;48.898;9.184;2022-10-29T02:06:07;99133.03;;;13.19;100.00
49843;BME280;55559;48.898;9.184;2022-10-29T02:08:44;99128.25;;;13.13;100.00
49843;BME280;55559;48.898;9.184;2022-10-29T02:11:18;99124.16;;;13.09;100.00
49843;BME280;55559;48.898;9.184;2022-10-29T02:13:50;99116.19;;;13.19;100.00
49843;BME280;55559;48.898;9.184;2022-10-29T02:16:21;99123.03;;;13.12;100.00
49843;BME280;55559;48.898;9.184;2022-10-29T02:18:52;99126.84;;;13.09;100.00
49843;BME280;55559;48.898;9.184;2022-10-29T02:21:20;99123.16;;;13.10;100.00
49843;BME280;55559;48.898;9.184;2022-10-29T02:23:47;99114.19;;;13.11;100.00
49843;BME280;55559;48.898;9.184;2022-10-29T02:26:15;99111.13;;;13.16;100.00
49843;BME280;55559;48.898;9.184;2022-10-29T02:28:42;99106.88;;;13.13;100.00
49843;BME280;55559;48.898;9.184;2022-10-29T02:31:10;99100.88;;;13.21;100.00
49843;BME280;55559;48.898;9.184;2022-10-29T02:33:37;99092.00;;;13.20;100.00
49843;BME280;55559;48.898;9.184;2022-10-29T02:36:07;99090.19;;;13.21;100.00
49843;BME280;55559;48.898;9.184;2022-10-29T02:38:35;99098.09;;;13.32;100.00
49843;BME280;55559;48.898;9.184;2022-10-29T02:41:02;99093.28;;;13.26;100.00
49843;BME280;55559;48.898;9.184;2022-10-29T02:43:29;99104.94;;;13.25;100.00
49843;BME280;55559;48.898;9.184;2022-10-29T02:46:10;99112.41;;;13.31;100.00
49843;BME280;55559;48.898;9.184;2022-10-29T02:48:38;99108.91;;;13.31;100.00
49843;BME280;55559;48.898;9.184;2022-10-29T02:51:07;99107.94;;;13.32;100.00
49843;BME280;55559;48.898;9.184;2022-10-29T02:53:34;99112.66;;;13.28;100.00
49843;BME280;55559;48.898;9.184;2022-10-29T02:56:02;99106.22;;;13.31;100.00
49843;BME280;55559;48.898;9.184;2022-10-29T02:58:30;99096.66;;;13.28;100.00
49843;BME280;55559;48.898;9.184;2022-10-29T03:00:58;99095.53;;;13.21;100.00
49843;BME280;55559;48.898;9.184;2022-10-29T03:03:25;99098.59;;;13.16;100.00
49843;BME280;55559;48.898;9.184;2022-10-29T03:05:53;99095.63;;;13.10;100.00
49843;BME280;55559;48.898;9.184;2022-10-29T03:08:22;99093.78;;;13.10;100.00
49843;BME280;55559;48.898;9.184;2022-10-29T03:10:49;99104.03;;;13.05;100.00
49843;BME280;55559;48.898;9.184;2022-10-29T03:13:17;99103.75;;;12.98;100.00
49843;BME280;55559;48.898;9.184;2022-10-29T03:15:44;99109.38;;;12.95;100.00
49843;BME280;55559;48.898;9.184;2022-10-29T03:18:12;99110.63;;;12.91;100.00
49843;BME280;55559;48.898;9.184;2022-10-29T03:20:39;99114.97;;;12.92;100.00
49843;BME280;55559;48.898;9.184;2022-10-29T03:23:10;99117.22;;;12.87;100.00
49843;BME280;55559;48.898;9.184;2022-10-29T03:25:38;99110.63;;;12.91;100.00
49843;BME280;55559;48.898;9.184;2022-10-29T03:28:06;99109.34;;;12.86;100.00
49843;BME280;55559;48.898;9.184;2022-10-29T03:30:35;99109.25;;;12.97;100.00
49843;BME280;55559;48.898;9.184;2022-10-29T03:33:02;99089.97;;;12.93;100.00
49843;BME280;55559;48.898;9.184;2022-10-29T03:35:30;99092.63;;;12.93;100.00
49843;BME280;55559;48.898;9.184;2022-10-29T03:37:57;99097.00;;;12.94;100.00
49843;BME280;55559;48.898;9.184;2022-10-29T03:40:25;99096.88;;;12.96;100.00
49843;BME280;55559;48.898;9.184;2022-10-29T03:42:54;99092.50;;;12.95;100.00
49843;BME280;55559;48.898;9.184;2022-10-29T03:45:21;99102.91;;;12.98;100.00
49843;BME280;55559;48.898;9.184;2022-10-29T03:47:49;99107.44;;;13.07;100.00
49843;BME280;55559;48.898;9.184;2022-10-29T03:50:16;99097.59;;;13.08;100.00
49843;BME280;55559;48.898;9.184;2022-10-29T03:52:43;99095.28;;;13.34;100.00
49843;BME280;55559;48.898;9.184;2022-10-29T03:55:11;99092.00;;;13.30;100.00
49843;BME280;55559;48.898;9.184;2022-10-29T03:57:38;99084.00;;;13.30;100.00
49843;BME280;55559;48.898;9.184;2022-10-29T04:00:09;99093.84;;;13.30;100.00
49843;BME280;55559;48.898;9.184;2022-10-29T04:02:39;99097.34;;;13.30;100.00
49843;BME280;55559;48.898;9.184;2022-10-29T04:05:07;99096.13;;;13.34;100.00
49843;BME280;55559;48.898;9.184;2022-10-29T04:07:35;99088.28;;;13.43;100.00
49843;BME280;55559;48.898;9.184;2022-10-29T04:10:03;99084.59;;;13.44;100.00
49843;BME280;55559;48.898;9.184;2022-10-29T04:12:30;99077.28;;;13.46;100.00
49843;BME280;55559;48.898;9.184;2022-10-29T04:14:58;99086.31;;;13.45;100.00
49843;BME280;55559;48.898;9.184;2022-10-29T04:17:27;99083.91;;;13.42;100.00
49843;BME280;55559;48.898;9.184;2022-10-29T04:19:54;99081.22;;;13.42;100.00
49843;BME280;55559;48.898;9.184;2022-10-29T04:22:21;99075.63;;;13.45;100.00
49843;BME280;55559;48.898;9.184;2022-10-29T04:24:49;99083.34;;;13.38;100.00
49843;BME280;55559;48.898;9.184;2022-10-29T04:27:17;99085.19;;;13.37;100.00
49843;BME280;55559;48.898;9.184;2022-10-29T04:29:44;99087.13;;;13.35;100.00
49843;BME280;55559;48.898;9.184;2022-10-29T04:32:11;99093.16;;;13.28;100.00
49843;BME280;55559;48.898;9.184;2022-10-29T04:34:40;99094.13;;;13.27;100.00
49843;BME280;55559;48.898;9.184;2022-10-29T04:37:08;99093.09;;;13.08;100.00
49843;BME280;55559;48.898;9.184;2022-10-29T04:39:35;99100.66;;;13.03;100.00
49843;BME280;55559;48.898;9.184;2022-10-29T04:42:03;99097.13;;;12.93;100.00
49843;BME280;55559;48.898;9.184;2022-10-29T04:44:30;99091.75;;;12.83;100.00
49843;BME280;55559;48.898;9.184;2022-10-29T04:46:57;99110.44;;;12.83;100.00
49843;BME280;55559;48.898;9.184;2022-10-29T04:49:25;99106.75;;;12.74;100.00
49843;BME280;55559;48.898;9.184;2022-10-29T04:51:54;99106.66;;;12.86;100.00
49843;BME280;55559;48.898;9.184;2022-10-29T04:54:21;99112.16;;;12.84;100.00
49843;BME280;55559;48.898;9.184;2022-10-29T04:56:48;99097.09;;;12.73;100.00
49843;BME280;55559;48.898;9.184;2022-10-29T04:59:16;99114.19;;;12.40;100.00
49843;BME280;55559;48.898;9.184;2022-10-29T05:01:43;99115.53;;;12.24;100.00
49843;BME280;55559;48.898;9.184;2022-10-29T05:04:11;99115.97;;;12.08;100.00
49843;BME280;55559;48.898;9.184;2022-10-29T05:06:38;99112.25;;;12.00;100.00
49843;BME280;55559;48.898;9.184;2022-10-29T05:09:07;99118.47;;;11.89;100.00
49843;BME280;55559;48.898;9.184;2022-10-29T05:11:34;99114.09;;;11.88;100.00
49843;BME280;55559;48.898;9.184;2022-10-29T05:14:02;99117.41;;;11.80;100.00
49843;BME280;55559;48.898;9.184;2022-10-29T05:16:29;99118.66;;;11.76;100.00
49843;BME280;55559;48.898;9.184;2022-10-29T05:18:57;99117.19;;;11.72;100.00
49843;BME280;55559;48.898;9.184;2022-10-29T05:21:25;99116.72;;;11.67;100.00
49843;BME280;55559;48.898;9.184;2022-10-29T05:23:52;99119.69;;;11.64;100.00
49843;BME280;55559;48.898;9.184;2022-10-29T05:26:21;99116.28;;;11.62;100.00
49843;BME280;55559;48.898;9.184;2022-10-29T05:28:48;99117.63;;;11.56;100.00
49843;BME280;55559;48.898;9.184;2022-10-29T05:31:17;99114.50;;;11.51;100.00
49843;BME280;55559;48.898;9.184;2022-10-29T05:33:44;99117.41;;;11.48;100.00
49843;BME280;55559;48.898;9.184;2022-10-29T05:36:12;99122.88;;;11.46;100.00
49843;BME280;55559;48.898;9.184;2022-10-29T05:38:39;99116.00;;;11.44;100.00
49843;BME280;55559;48.898;9.184;2022-10-29T05:41:07;99120.25;;;11.35;100.00
49843;BME280;55559;48.898;9.184;2022-10-29T05:43:35;99127.50;;;11.33;100.00
49843;BME280;55559;48.898;9.184;2022-10-29T05:46:03;99126.19;;;11.27;100.00
49843;BME280;55559;48.898;9.184;2022-10-29T05:48:31;99122.94;;;11.24;100.00
49843;BME280;55559;48.898;9.184;2022-10-29T05:50:58;99121.63;;;11.18;100.00
49843;BME280;55559;48.898;9.184;2022-10-29T05:53:25;99122.47;;;11.19;100.00
49843;BME280;55559;48.898;9.184;2022-10-29T05:55:53;99127.69;;;11.20;100.00
49843;BME280;55559;48.898;9.184;2022-10-29T05:58:20;99124.16;;;11.20;100.00
49843;BME280;55559;48.898;9.184;2022-10-29T06:00:49;99115.31;;;11.19;100.00
49843;BME280;55559;48.898;9.184;2022-10-29T06:03:19;99120.88;;;11.16;100.00
49843;BME280;55559;48.898;9.184;2022-10-29T06:05:47;99130.22;;;11.22;100.00
49843;BME280;55559;48.898;9.184;2022-10-29T06:08:15;99125.25;;;11.17;100.00
49843;BME280;55559;48.898;9.184;2022-10-29T06:10:43;99126.97;;;11.18;100.00
49843;BME280;55559;48.898;9.184;2022-10-29T06:13:11;99123.44;;;11.17;100.00
49843;BME280;55559;48.898;9.184;2022-10-29T06:15:39;99125.72;;;11.22;100.00
49843;BME280;55559;48.898;9.184;2022-10-29T06:18:08;99122.69;;;11.27;100.00
49843;BME280;55559;48.898;9.184;2022-10-29T06:20:36;99124.38;;;11.28;100.00
49843;BME280;55559;48.898;9.184;2022-10-29T06:23:04;99123.16;;;11.32;100.00
49843;BME280;55559;48.898;9.184;2022-10-29T06:25:32;99127.38;;;11.34;100.00
49843;BME280;55559;48.898;9.184;2022-10-29T06:28:00;99127.38;;;11.34;100.00
49843;BME280;55559;48.898;9.184;2022-10-29T06:30:28;99126.19;;;11.39;100.00
49843;BME280;55559;48.898;9.184;2022-10-29T06:32:56;99125.41;;;11.48;100.00
49843;BME280;55559;48.898;9.184;2022-10-29T06:35:25;99126.34;;;11.58;100.00
49843;BME280;55559;48.898;9.184;2022-10-29T06:37:53;99122.94;;;11.67;100.00
49843;BME280;55559;48.898;9.184;2022-10-29T06:40:20;99122.28;;;11.75;100.00
49843;BME280;55559;48.898;9.184;2022-10-29T06:42:48;99122.72;;;11.80;100.00
49843;BME280;55559;48.898;9.184;2022-10-29T06:45:16;99118.84;;;11.84;100.00
49843;BME280;55559;48.898;9.184;2022-10-29T06:47:44;99114.81;;;11.90;100.00
49843;BME280;55559;48.898;9.184;2022-10-29T06:50:12;99116.31;;;11.94;100.00
49843;BME280;55559;48.898;9.184;2022-10-29T06:52:41;99115.91;;;11.99;100.00
49843;BME280;55559;48.898;9.184;2022-10-29T06:55:09;99125.59;;;12.00;100.00
49843;BME280;55559;48.898;9.184;2022-10-29T06:57:36;99125.91;;;12.06;100.00
49843;BME280;55559;48.898;9.184;2022-10-29T07:00:08;99119.09;;;12.14;100.00
49843;BME280;55559;48.898;9.184;2022-10-29T07:02:35;99116.75;;;12.20;100.00
49843;BME280;55559;48.898;9.184;2022-10-29T07:05:03;99118.22;;;12.34;100.00
49843;BME280;55559;48.898;9.184;2022-10-29T07:07:31;99113.63;;;12.36;100.00
49843;BME280;55559;48.898;9.184;2022-10-29T07:10:00;99107.59;;;12.44;100.00
49843;BME280;55559;48.898;9.184;2022-10-29T07:12:27;99112.16;;;12.53;100.00
49843;BME280;55559;48.898;9.184;2022-10-29T07:14:54;99101.13;;;12.68;100.00
49843;BME280;55559;48.898;9.184;2022-10-29T07:17:22;99102.31;;;12.84;100.00
49843;BME280;55559;48.898;9.184;2022-10-29T07:19:49;99097.25;;;12.91;100.00
49843;BME280;55559;48.898;9.184;2022-10-29T07:22:17;99093.78;;;13.00;100.00
49843;BME280;55559;48.898;9.184;2022-10-29T07:24:44;99103.75;;;12.98;100.00
49843;BME280;55559;48.898;9.184;2022-10-29T07:27:13;99095.34;;;13.03;100.00
49843;BME280;55559;48.898;9.184;2022-10-29T07:29:40;99098.16;;;13.11;100.00
49843;BME280;55559;48.898;9.184;2022-10-29T07:32:09;99102.69;;;13.20;100.00
49843;BME280;55559;48.898;9.184;2022-10-29T07:34:36;99105.25;;;13.32;100.00
49843;BME280;55559;48.898;9.184;2022-10-29T07:37:03;99102.03;;;13.38;100.00
49843;BME280;55559;48.898;9.184;2022-10-29T07:39:31;99113.28;;;13.42;100.00
49843;BME280;55559;48.898;9.184;2022-10-29T07:41:58;99117.66;;;13.52;100.00
49843;BME280;55559;48.898;9.184;2022-10-29T07:44:27;99107.25;;;13.59;100.00
49843;BME280;55559;48.898;9.184;2022-10-29T07:46:55;99107.13;;;13.70;100.00
49843;BME280;55559;48.898;9.184;2022-10-29T07:49:22;99116.25;;;13.77;100.00
49843;BME280;55559;48.898;9.184;2022-10-29T07:51:50;99116.66;;;13.83;100.00
49843;BME280;55559;48.898;9.184;2022-10-29T07:54:17;99117.25;;;13.86;100.00
49843;BME280;55559;48.898;9.184;2022-10-29T07:56:44;99119.91;;;13.96;100.00
49843;BME280;55559;48.898;9.184;2022-10-29T07:59:12;99112.75;;;13.97;100.00
49843;BME280;55559;48.898;9.184;2022-10-29T08:01:41;99115.09;;;14.00;100.00
49843;BME280;55559;48.898;9.184;2022-10-29T08:04:09;99110.63;;;14.00;100.00
49843;BME280;55559;48.898;9.184;2022-10-29T08:06:36;99112.28;;;14.01;100.00
49843;BME280;55559;48.898;9.184;2022-10-29T08:09:09;99110.03;;;14.06;100.00
49843;BME280;55559;48.898;9.184;2022-10-29T08:11:37;99113.56;;;14.17;100.00
49843;BME280;55559;48.898;9.184;2022-10-29T08:14:04;99103.69;;;14.27;100.00
49843;BME280;55559;48.898;9.184;2022-10-29T08:16:32;99107.88;;;14.39;100.00
49843;BME280;55559;48.898;9.184;2022-10-29T08:19:01;99102.03;;;14.63;100.00
49843;BME280;55559;48.898;9.184;2022-10-29T08:21:28;99114.25;;;14.76;100.00
49843;BME280;55559;48.898;9.184;2022-10-29T08:23:56;99104.00;;;14.99;100.00
49843;BME280;55559;48.898;9.184;2022-10-29T08:26:23;99097.47;;;15.11;100.00
49843;BME280;55559;48.898;9.184;2022-10-29T08:28:51;99096.94;;;15.25;100.00
49843;BME280;55559;48.898;9.184;2022-10-29T08:31:18;99095.88;;;15.36;100.00
49843;BME280;55559;48.898;9.184;2022-10-29T08:33:46;99098.03;;;15.51;100.00
49843;BME280;55559;48.898;9.184;2022-10-29T08:36:15;99094.09;;;15.63;100.00
49843;BME280;55559;48.898;9.184;2022-10-29T08:38:43;99085.72;;;15.76;100.00
49843;BME280;55559;48.898;9.184;2022-10-29T08:41:23;99088.16;;;15.87;100.00
49843;BME280;55559;48.898;9.184;2022-10-29T08:44:14;99089.75;;;15.98;100.00
49843;BME280;55559;48.898;9.184;2022-10-29T08:46:47;99094.19;;;16.07;100.00
49843;BME280;55559;48.898;9.184;2022-10-29T08:49:18;99083.50;;;16.15;100.00
49843;BME280;55559;48.898;9.184;2022-10-29T08:51:59;99091.97;;;16.29;100.00
49843;BME280;55559;48.898;9.184;2022-10-29T08:54:30;99087.47;;;16.29;100.00
49843;BME280;55559;48.898;9.184;2022-10-29T08:57:04;99085.16;;;16.34;100.00
49843;BME280;55559;48.898;9.184;2022-10-29T08:59:37;99090.78;;;16.23;100.00
49843;BME280;55559;48.898;9.184;2022-10-29T09:02:14;99094.81;;;16.27;100.00
49843;BME280;55559;48.898;9.184;2022-10-29T09:04:42;99089.03;;;16.14;100.00
49843;BME280;55559;48.898;9.184;2022-10-29T09:10:14;99094.19;;;16.07;100.00
49843;BME280;55559;48.898;9.184;2022-10-29T09:12:57;99097.94;;;16.14;100.00
49843;BME280;55559;48.898;9.184;2022-10-29T09:15:40;99089.66;;;16.34;100.00
49843;BME280;55559;48.898;9.184;2022-10-29T09:18:25;99086.66;;;16.37;100.00
49843;BME280;55559;48.898;9.184;2022-10-29T09:21:02;99091.13;;;16.54;100.00
49843;BME280;55559;48.898;9.184;2022-10-29T09:23:56;99082.28;;;16.62;100.00
49843;BME280;55559;48.898;9.184;2022-10-29T09:26:29;99079.81;;;16.77;100.00
49843;BME280;55559;48.898;9.184;2022-10-29T09:29:20;99079.94;;;16.94;100.00
49843;BME280;55559;48.898;9.184;2022-10-29T09:31:55;99077.47;;;17.08;100.00
49843;BME280;55559;48.898;9.184;2022-10-29T09:34:27;99068.75;;;17.23;100.00
49843;BME280;55559;48.898;9.184;2022-10-29T09:36:57;99072.97;;;17.42;100.00
49843;BME280;55559;48.898;9.184;2022-10-29T09:39:28;99076.88;;;17.64;100.00
49843;BME280;55559;48.898;9.184;2022-10-29T09:42:00;99061.78;;;17.79;100.00
49843;BME280;55559;48.898;9.184;2022-10-29T09:44:34;99069.00;;;18.03;100.00
49843;BME280;55559;48.898;9.184;2022-10-29T09:47:11;99064.44;;;18.20;100.00
49843;BME280;55559;48.898;9.184;2022-10-29T09:49:49;99052.47;;;18.31;100.00
49843;BME280;55559;48.898;9.184;2022-10-29T09:52:27;99057.66;;;18.49;100.00
49843;BME280;55559;48.898;9.184;2022-10-29T09:55:00;99060.91;;;18.76;100.00
49843;BME280;55559;48.898;9.184;2022-10-29T09:57:30;99063.75;;;18.91;100.00
49843;BME280;55559;48.898;9.184;2022-10-29T10:00:02;99064.69;;;19.06;100.00
49843;BME280;55559;48.898;9.184;2022-10-29T10:02:41;99060.69;;;19.25;100.00
49843;BME280;55559;48.898;9.184;2022-10-29T10:05:14;99062.28;;;19.43;100.00
49843;BME280;55559;48.898;9.184;2022-10-29T10:07:42;99063.97;;;19.67;100.00
49843;BME280;55559;48.898;9.184;2022-10-29T10:10:33;99058.34;;;19.77;100.00
49843;BME280;55559;48.898;9.184;2022-10-29T10:13:02;99057.97;;;19.80;100.00
49843;BME280;55559;48.898;9.184;2022-10-29T10:15:31;99054.53;;;20.09;100.00
49843;BME280;55559;48.898;9.184;2022-10-29T10:18:01;99057.50;;;20.14;100.00
49843;BME280;55559;48.898;9.184;2022-10-29T10:20:37;99056.22;;;20.25;100.00
49843;BME280;55559;48.898;9.184;2022-10-29T10:23:20;99051.88;;;20.39;100.00
49843;BME280;55559;48.898;9.184;2022-10-29T10:25:49;99042.72;;;20.55;100.00
49843;BME280;55559;48.898;9.184;2022-10-29T10:28:19;99044.59;;;20.84;100.00
49843;BME280;55559;48.898;9.184;2022-10-29T10:31:05;99039.63;;;20.88;100.00
49843;BME280;55559;48.898;9.184;2022-10-29T10:33:34;99037.56;;;21.05;100.00
49843;BME280;55559;48.898;9.184;2022-10-29T10:36:05;99035.41;;;21.15;100.00
49843;BME280;55559;48.898;9.184;2022-10-29T10:38:38;99030.06;;;21.22;100.00
49843;BME280;55559;48.898;9.184;2022-10-29T10:41:08;99037.28;;;21.36;100.00
49843;BME280;55559;48.898;9.184;2022-10-29T10:43:37;99030.84;;;21.37;100.00
49843;BME280;55559;48.898;9.184;2022-10-29T10:46:11;99028.41;;;21.42;100.00
49843;BME280;55559;48.898;9.184;2022-10-29T10:48:40;99023.72;;;21.51;100.00
49843;BME280;55559;48.898;9.184;2022-10-29T10:51:12;99012.91;;;21.51;100.00
49843;BME280;55559;48.898;9.184;2022-10-29T10:53:41;99009.28;;;21.65;100.00
49843;BME280;55559;48.898;9.184;2022-10-29T10:56:18;99007.72;;;21.78;100.00
49843;BME280;55559;48.898;9.184;2022-10-29T10:58:50;99005.72;;;21.86;100.00
49843;BME280;55559;48.898;9.184;2022-10-29T11:01:24;99004.56;;;22.02;100.00
49843;BME280;55559;48.898;9.184;2022-10-29T11:03:59;99005.22;;;22.04;100.00
49843;BME280;55559;48.898;9.184;2022-10-29T11:06:32;99003.56;;;22.32;100.00
49843;BME280;55559;48.898;9.184;2022-10-29T11:09:06;98999.88;;;22.46;100.00
49843;BME280;55559;48.898;9.184;2022-10-29T11:11:41;98998.88;;;22.54;100.00
49843;BME280;55559;48.898;9.184;2022-10-29T11:14:14;98989.06;;;22.53;100.00
49843;BME280;55559;48.898;9.184;2022-10-29T11:16:47;98993.50;;;22.60;99.91
49843;BME280;55559;48.898;9.184;2022-10-29T11:19:19;98990.41;;;22.70;100.00
49843;BME280;55559;48.898;9.184;2022-10-29T11:21:57;98996.50;;;22.85;96.28
49843;BME280;55559;48.898;9.184;2022-10-29T11:24:34;98981.28;;;22.84;100.00
49843;BME280;55559;48.898;9.184;2022-10-29T11:27:16;98986.72;;;22.91;97.52
49843;BME280;55559;48.898;9.184;2022-10-29T11:29:52;98992.59;;;23.01;96.86
49843;BME280;55559;48.898;9.184;2022-10-29T11:32:29;98987.00;;;23.10;92.28
49843;BME280;55559;48.898;9.184;2022-10-29T11:35:03;98979.50;;;23.18;100.00
49843;BME280;55559;48.898;9.184;2022-10-29T11:37:34;98977.66;;;23.12;100.00
49843;BME280;55559;48.898;9.184;2022-10-29T11:40:11;98974.94;;;23.32;100.00
49843;BME280;55559;48.898;9.184;2022-10-29T11:42:40;98974.72;;;23.27;98.52
49843;BME280;55559;48.898;9.184;2022-10-29T11:45:12;98968.91;;;23.44;100.00
49843;BME280;55559;48.898;9.184;2022-10-29T11:47:50;98954.94;;;23.47;91.12
49843;BME280;55559;48.898;9.184;2022-10-29T11:50:26;98957.44;;;23.75;92.21
49843;BME280;55559;48.898;9.184;2022-10-29T11:53:02;98954.72;;;23.75;91.77
49843;BME280;55559;48.898;9.184;2022-10-29T11:55:39;98951.59;;;23.71;92.31
49843;BME280;55559;48.898;9.184;2022-10-29T11:58:16;98959.75;;;23.71;94.81
49843;BME280;55559;48.898;9.184;2022-10-29T12:00:55;98947.59;;;23.81;88.06
49843;BME280;55559;48.898;9.184;2022-10-29T12:03:50;98942.81;;;23.89;88.12
49843;BME280;55559;48.898;9.184;2022-10-29T12:06:24;98934.44;;;23.64;100.00
49843;BME280;55559;48.898;9.184;2022-10-29T12:09:12;98938.03;;;23.71;100.00
49843;BME280;55559;48.898;9.184;2022-10-29T12:11:48;98940.09;;;23.83;87.80
49843;BME280;55559;48.898;9.184;2022-10-29T12:14:27;98932.78;;;23.70;100.00
49843;BME280;55559;48.898;9.184;2022-10-29T12:17:07;98936.34;;;23.77;93.04
49843;BME280;55559;48.898;9.184;2022-10-29T12:19:44;98929.44;;;23.88;86.45
49843;BME280;55559;48.898;9.184;2022-10-29T12:22:22;98928.16;;;24.10;86.82
49843;BME280;55559;48.898;9.184;2022-10-29T12:25:05;98923.34;;;24.12;87.21
49843;BME280;55559;48.898;9.184;2022-10-29T12:27:44;98914.56;;;24.17;82.66
49843;BME280;55559;48.898;9.184;2022-10-29T12:30:21;98918.47;;;24.28;84.02
49843;BME280;55559;48.898;9.184;2022-10-29T12:32:55;98912.28;;;24.07;80.15
49843;BME280;55559;48.898;9.184;2022-10-29T12:35:28;98905.44;;;23.91;83.03
49843;BME280;55559;48.898;9.184;2022-10-29T12:38:11;98907.28;;;23.91;82.75
49843;BME280;55559;48.898;9.184;2022-10-29T12:40:47;98900.78;;;24.05;81.20
49843;BME280;55559;48.898;9.184;2022-10-29T12:43:21;98899.28;;;24.23;82.50
49843;BME280;55559;48.898;9.184;2022-10-29T12:45:57;98900.31;;;24.22;79.77
49843;BME280;55559;48.898;9.184;2022-10-29T12:48:36;98892.84;;;24.10;84.46
49843;BME280;55559;48.898;9.184;2022-10-29T12:51:10;98883.34;;;24.33;84.50
49843;BME280;55559;48.898;9.184;2022-10-29T12:53:45;98883.72;;;24.43;82.45
49843;BME280;55559;48.898;9.184;2022-10-29T12:56:17;98878.47;;;24.42;83.41
49843;BME280;55559;48.898;9.184;2022-10-29T12:58:49;98873.06;;;24.35;85.05
49843;BME280;55559;48.898;9.184;2022-10-29T13:01:46;98864.38;;;24.20;86.39
49843;BME280;55559;48.898;9.184;2022-10-29T13:04:27;98860.81;;;24.19;89.77
49843;BME280;55559;48.898;9.184;2022-10-29T13:07:01;98860.03;;;24.12;89.52
49843;BME280;55559;48.898;9.184;2022-10-29T13:09:29;98860.44;;;24.16;91.13
49843;BME280;55559;48.898;9.184;2022-10-29T13:11:59;98856.63;;;24.17;91.53
49843;BME280;55559;48.898;9.184;2022-10-29T13:14:33;98849.78;;;24.14;94.67